createdAt,value
2024-05-09T04:03:36.989Z,100.00
2024-05-09T04:07:39.143Z,100.00
2024-05-09T04:11:43.924Z,100.00
2024-05-09T04:15:49.776Z,100.00
2024-05-09T04:19:57.124Z,100.00
2024-05-09T04:24:01.837Z,100.00
2024-05-09T04:28:06.894Z,100.00
2024-05-09T04:32:11.624Z,100.00
2024-05-09T04:36:18.980Z,100.00
2024-05-09T04:40:30.822Z,100.00
2024-05-09T04:44:38.427Z,100.00
2024-05-09T04:48:43.383Z,100.00
2024-05-09T04:52:50.851Z,100.00
2024-05-09T04:56:55.527Z,100.00
2024-05-09T05:00:57.604Z,100.00
2024-05-09T05:05:02.951Z,100.00
2024-05-09T05:09:10.413Z,100.00
2024-05-09T05:13:24.912Z,100.00
2024-05-09T05:17:30.086Z,100.00
2024-05-09T05:21:34.871Z,100.00
2024-05-09T05:25:42.284Z,100.00
2024-05-09T05:29:47.016Z,100.00
2024-05-09T05:33:52.013Z,100.00
2024-05-09T05:37:54.138Z,100.00
2024-05-09T05:42:01.544Z,100.00
2024-05-09T05:46:06.266Z,100.00
2024-05-09T05:50:20.751Z,100.00
2024-05-09T05:54:32.187Z,100.00
2024-05-09T05:58:39.439Z,100.00
2024-05-09T06:02:44.334Z,100.00
2024-05-09T06:06:49.157Z,100.00
2024-05-09T06:10:53.947Z,100.00
2024-05-09T06:15:01.355Z,100.00
2024-05-09T06:19:06.162Z,100.00
2024-05-09T06:23:11.797Z,100.00
2024-05-09T06:27:16.797Z,100.00
2024-05-09T06:31:24.107Z,100.00
2024-05-09T06:35:28.859Z,100.00
2024-05-09T06:39:33.620Z,100.00
2024-05-09T06:43:38.322Z,100.00
2024-05-09T06:47:46.213Z,100.00
2024-05-09T06:51:50.951Z,100.00
2024-05-09T06:55:55.643Z,100.00
2024-05-09T07:00:01.000Z,100.00
2024-05-09T07:04:08.694Z,100.00
2024-05-09T07:08:14.844Z,100.00
2024-05-09T07:12:19.693Z,100.00
2024-05-09T07:16:24.456Z,100.00
2024-05-09T07:20:34.547Z,100.00
2024-05-09T07:24:40.157Z,100.00
2024-05-09T07:28:45.273Z,100.00
2024-05-09T07:32:50.304Z,100.00
2024-05-09T07:36:57.777Z,100.00
2024-05-09T07:41:02.480Z,100.00
2024-05-09T07:45:29.534Z,100.00
2024-05-09T07:53:49.915Z,99.74
2024-05-09T07:57:57.184Z,100.00
2024-05-09T08:02:02.173Z,99.62
2024-05-09T08:06:07.467Z,94.41
2024-05-09T08:10:18.802Z,87.06
2024-05-09T08:14:26.609Z,77.47
2024-05-09T08:18:31.587Z,79.83
2024-05-09T08:22:36.557Z,71.45
2024-05-09T08:26:43.876Z,70.30
2024-05-09T08:30:48.814Z,62.81
2024-05-09T08:34:53.837Z,59.91
2024-05-09T08:38:58.599Z,59.31
2024-05-09T08:43:12.087Z,60.21
2024-05-09T08:47:17.877Z,61.72
2024-05-09T08:51:22.813Z,55.49
2024-05-09T08:55:28.024Z,53.67
2024-05-09T08:59:38.396Z,55.07
2024-05-09T09:03:44.758Z,52.45
2024-05-09T09:07:51.556Z,51.08
2024-05-09T09:11:56.326Z,55.75
2024-05-09T09:16:04.020Z,47.16
2024-05-09T09:20:14.406Z,46.25
2024-05-09T09:24:23.634Z,48.52
2024-05-09T09:28:28.366Z,46.52
2024-05-09T09:32:35.758Z,48.66
2024-05-09T09:36:42.391Z,49.05
2024-05-09T09:40:50.411Z,47.56
2024-05-09T09:45:03.900Z,49.86
2024-05-09T09:49:12.957Z,47.59
2024-05-09T09:53:19.212Z,48.80
2024-05-09T09:57:26.664Z,48.98
2024-05-09T10:01:31.381Z,48.67
2024-05-09T10:05:41.309Z,48.93
2024-05-09T10:09:48.294Z,47.64
2024-05-09T10:13:54.962Z,47.31
2024-05-09T10:18:07.518Z,48.34
2024-05-09T10:22:15.086Z,47.84
2024-05-09T10:26:19.819Z,46.41
2024-05-09T10:30:33.823Z,47.92
2024-05-09T10:34:40.859Z,47.32
2024-05-09T10:38:48.229Z,47.13
2024-05-09T10:42:53.012Z,49.47
2024-05-09T10:46:57.917Z,46.42
2024-05-09T10:51:03.868Z,46.80
2024-05-09T10:55:11.307Z,47.17
2024-05-09T10:59:15.969Z,44.77
2024-05-09T11:03:20.919Z,46.47
2024-05-09T11:07:25.816Z,46.66
2024-05-09T11:11:33.355Z,48.38
2024-05-09T11:15:42.043Z,44.91
2024-05-09T11:19:47.151Z,44.27
2024-05-09T11:23:51.963Z,43.88
2024-05-09T11:28:01.470Z,49.83
2024-05-09T11:32:06.667Z,47.06
2024-05-09T11:36:12.096Z,45.74
2024-05-09T11:40:24.838Z,44.99
2024-05-09T11:44:36.077Z,43.83
2024-05-09T11:48:42.423Z,42.64
2024-05-09T11:52:47.200Z,43.67
2024-05-09T11:56:49.337Z,46.00
2024-05-09T12:00:57.275Z,44.08
2024-05-09T12:05:02.230Z,40.55
2024-05-09T12:09:07.181Z,39.83
2024-05-09T12:13:16.115Z,41.96
2024-05-09T12:17:27.710Z,41.97
2024-05-09T12:21:33.805Z,40.30
2024-05-09T12:25:39.598Z,39.65
2024-05-09T12:29:44.703Z,41.74
2024-05-09T12:33:53.228Z,41.75
2024-05-09T12:37:55.424Z,43.63
2024-05-09T12:42:00.183Z,40.62
2024-05-09T12:46:05.277Z,41.96
2024-05-09T12:50:21.862Z,41.08
2024-05-09T12:54:31.844Z,42.62
2024-05-09T12:58:36.558Z,42.31
2024-05-09T13:02:41.653Z,41.36
2024-05-09T13:06:49.603Z,40.33
2024-05-09T13:10:54.563Z,40.21
2024-05-09T13:14:59.300Z,40.60
2024-05-09T13:19:03.998Z,39.56
2024-05-09T13:23:11.369Z,41.58
2024-05-09T13:27:13.601Z,39.73
2024-05-09T13:31:19.826Z,40.94
2024-05-09T13:35:24.564Z,40.43
2024-05-09T13:39:29.288Z,39.57
2024-05-09T13:43:34.128Z,39.86
2024-05-09T13:47:39.189Z,40.91
2024-05-09T13:51:44.123Z,37.95
2024-05-09T13:55:51.584Z,38.55
2024-05-09T13:59:56.254Z,37.15
2024-05-09T14:04:01.161Z,36.69
2024-05-09T14:08:06.139Z,35.85
2024-05-09T14:12:13.578Z,35.95
2024-05-09T14:16:18.580Z,33.56
2024-05-09T14:20:30.459Z,36.28
2024-05-09T14:24:37.012Z,36.19
2024-05-09T14:28:44.347Z,36.80
2024-05-09T14:32:49.169Z,34.54
2024-05-09T14:36:54.012Z,34.63
2024-05-09T14:40:58.919Z,32.72
2024-05-09T14:45:08.647Z,34.35
2024-05-09T14:49:13.582Z,33.95
2024-05-09T14:53:18.478Z,33.85
2024-05-09T14:57:23.357Z,34.69
2024-05-09T15:01:31.062Z,33.85
2024-05-09T15:05:35.972Z,32.25
2024-05-09T15:09:40.806Z,31.20
2024-05-09T15:13:45.476Z,32.75
2024-05-09T15:17:53.274Z,33.93
2024-05-09T15:21:58.160Z,34.48
2024-05-09T15:26:03.970Z,34.08
2024-05-09T15:30:10.841Z,32.71
2024-05-09T15:34:19.983Z,33.20
2024-05-09T15:38:26.381Z,32.16
2024-05-09T15:42:31.087Z,32.21
2024-05-09T15:46:36.110Z,33.45
2024-05-09T15:50:43.721Z,32.84
2024-05-09T15:54:48.766Z,32.64
2024-05-09T15:58:53.464Z,33.01
2024-05-09T16:02:58.257Z,32.72
2024-05-09T16:07:06.194Z,32.58
2024-05-09T16:11:11.040Z,31.92
2024-05-09T16:15:15.833Z,32.21
2024-05-09T16:19:20.576Z,32.16
2024-05-09T16:23:27.990Z,33.29
2024-05-09T16:27:32.732Z,32.73
2024-05-09T16:31:37.535Z,32.49
2024-05-09T16:35:42.224Z,33.35
2024-05-09T16:39:49.572Z,32.89
2024-05-09T16:43:54.446Z,32.62
2024-05-09T16:47:59.783Z,33.44
2024-05-09T16:52:04.878Z,33.00
2024-05-09T16:56:12.581Z,33.39
2024-05-09T17:00:25.619Z,33.59
2024-05-09T17:04:36.633Z,34.15
2024-05-09T17:08:43.694Z,34.26
2024-05-09T17:12:51.213Z,33.83
2024-05-09T17:16:55.938Z,34.61
2024-05-09T17:21:00.770Z,34.02
2024-05-09T17:25:05.591Z,34.30
2024-05-09T17:29:13.075Z,34.67
2024-05-09T17:33:17.982Z,35.73
2024-05-09T17:37:23.018Z,35.86
2024-05-09T17:41:27.786Z,35.53
2024-05-09T17:45:36.734Z,35.52
2024-05-09T17:49:41.508Z,35.93
2024-05-09T17:53:48.440Z,36.88
2024-05-09T17:57:53.447Z,38.31
2024-05-09T18:02:01.074Z,41.29
2024-05-09T18:06:06.017Z,43.86
2024-05-09T18:10:19.505Z,46.21
2024-05-09T18:14:30.384Z,47.39
2024-05-09T18:18:37.905Z,49.37
2024-05-09T18:22:42.680Z,53.22
2024-05-09T18:26:47.410Z,53.49
2024-05-09T18:30:52.196Z,57.07
2024-05-09T18:34:59.584Z,57.61
2024-05-09T18:39:06.196Z,58.36
2024-05-09T18:43:10.919Z,59.40
2024-05-09T18:47:19.320Z,54.76
2024-05-09T18:51:27.303Z,55.40
2024-05-09T18:55:29.509Z,62.87
2024-05-09T18:59:34.287Z,67.08
2024-05-09T19:03:39.260Z,68.21
2024-05-09T19:07:46.711Z,67.83
2024-05-09T19:11:51.483Z,68.41
2024-05-09T19:15:56.346Z,71.07
2024-05-09T19:20:01.207Z,75.91
2024-05-09T19:24:08.914Z,80.71
2024-05-09T19:28:13.725Z,80.44
2024-05-09T19:32:18.584Z,81.87
2024-05-09T19:36:23.479Z,86.51
2024-05-09T19:40:32.994Z,87.96
2024-05-09T19:44:39.187Z,88.86
2024-05-09T19:48:44.216Z,89.71
2024-05-09T19:52:49.014Z,90.28
2024-05-09T19:56:58.804Z,95.53
2024-05-09T20:01:03.629Z,97.16
2024-05-09T20:05:08.703Z,98.27
2024-05-09T20:09:13.681Z,99.23
2024-05-09T20:13:21.275Z,100.00
2024-05-09T20:17:26.161Z,100.00
2024-05-09T20:21:30.814Z,100.00
2024-05-09T20:25:35.717Z,100.00
2024-05-09T20:29:43.079Z,100.00
2024-05-09T20:33:47.814Z,100.00
2024-05-09T20:37:52.530Z,100.00
2024-05-09T20:41:57.897Z,100.00
2024-05-09T20:46:05.919Z,100.00
2024-05-09T20:50:20.338Z,100.00
2024-05-09T20:54:33.106Z,100.00
2024-05-09T20:58:37.804Z,100.00
